Latest Weather Observations for Smithton

IDT60801

Issued at 10:02 pm EDT Saturday 23 February 2019 (issued every 10 minutes, with the page automatically refreshed every 10 minutes)

About weather observations | Map of weather stations | Latest weather observations for TAS | Other Formats
Station Details ID: 091292 Name: SMITHTON AERODROME Lat: -40.83 Lon: 145.08 Height: 7.5 m
Data from the previous 72 hours. | See also: Recent months at Smithton
Date/Time
EDT
Temp
°C
App
Temp
°C
Dew
Point
°C
Rel
Hum
%
Delta-T
°C
Wind Press
QNH
hPa
Press
MSL
hPa
Rain since
9am
mm
Dir  Spd
km/h
Gust
km/h
Spd
kts
Gust
kts
23/10:00pm 17.2 - - - - ENE 15 17 8 9 1029.5 - 0.0
23/09:30pm 16.9 - - - - E 13 17 7 9 1029.4 - 0.0
23/09:00pm 16.3 - - - - E 11 15 6 8 1029.2 1029.2 0.0
23/08:30pm 16.0 - - - - ENE 11 13 6 7 1028.9 - 0.0
23/08:00pm 17.5 - - - - NE 15 19 8 10 1028.4 - 0.0
23/07:30pm 18.4 - - - - NE 15 19 8 10 1028.0 - 0.0
23/07:00pm 19.1 - - - - NE 15 19 8 10 1028.0 - 0.0
23/06:30pm 19.6 - - - - NE 15 19 8 10 1027.9 - 0.0
23/06:00pm 20.0 - - - - NE 17 20 9 11 1027.8 1027.8 0.0
23/05:30pm 20.6 - - - - NE 19 26 10 14 1027.6 - 0.0
23/05:00pm 20.6 - - - - NNE 20 26 11 14 1027.6 - 0.0
23/04:30pm 20.8 - - - - NE 22 30 12 16 1027.5 - 0.0
23/04:00pm 21.6 - - - - NE 24 33 13 18 1027.4 - 0.0
23/03:30pm 21.8 - - - - NE 24 33 13 18 1027.4 - 0.0
23/03:00pm 22.2 - - - - ENE 24 32 13 17 1027.3 1027.3 0.0
23/02:30pm 21.7 - - - - ENE 24 30 13 16 1027.5 - 0.0
23/02:00pm 21.2 - - - - NNE 26 35 14 19 1027.4 - 0.0
23/01:30pm 22.0 - - - - NE 22 32 12 17 1027.5 - 0.0
23/01:00pm 21.8 - - - - NNE 24 32 13 17 1027.4 - 0.0
23/12:30pm 22.2 - - - - NE 24 32 13 17 1027.2 - 0.0
23/12:00pm 22.0 - - - - NE 24 32 13 17 1027.1 1027.1 0.0
23/11:30am 21.7 - - - - NNE 19 26 10 14 1027.2 - 0.0
23/11:00am 20.7 - - - - NNE 15 20 8 11 1027.4 - 0.0
23/10:30am 20.5 - - - - SSE 9 15 5 8 1027.4 - 0.0
23/10:00am 18.7 - - - - SE 7 13 4 7 1027.3 - 0.0
23/09:30am 17.0 - - - - S 13 17 7 9 1027.2 - 0.0
23/09:00am 15.5 - - - - S 17 20 9 11 1026.9 1026.9 0.0
23/08:30am 14.0 - - - - S 19 24 10 13 1026.5 - 0.0
23/08:00am 12.3 - - - - SSW 13 19 7 10 1026.4 - 0.0
23/07:30am 10.7 - - - - SSW 15 17 8 9 1025.8 - 0.0
23/07:00am 10.3 - - - - S 20 22 11 12 1025.1 - 0.0
23/06:30am 10.6 - - - - S 19 24 10 13 1024.7 - 0.0
23/06:00am 10.9 - - - - SSW 24 30 13 16 1024.7 1024.7 0.0
23/05:30am 10.8 - - - - S 22 26 12 14 1024.3 - 0.0
23/05:00am 11.3 - - - - S 22 28 12 15 1024.1 - 0.0
23/04:30am 11.6 - - - - S 15 20 8 11 1024.0 - 0.0
23/04:00am 11.8 - - - - S 19 24 10 13 1023.9 - 0.0
23/03:30am 12.3 - - - - S 22 30 12 16 1024.0 - 0.0
23/03:00am 12.3 - - - - SSW 24 33 13 18 1024.0 1024.0 0.0
23/02:30am 12.5 - - - - SSW 30 37 16 20 1023.6 - 0.0
23/02:00am 12.5 - - - - S 24 32 13 17 1023.8 - 0.0
23/01:30am 12.6 - - - - SSW 28 35 15 19 1023.9 - 0.0
23/01:00am 12.8 - - - - SSW 30 37 16 20 1023.7 - 0.0
23/12:30am 13.0 - - - - SSW 32 39 17 21 1023.9 - 0.0
23/12:00am 13.0 - - - - SSW 35 44 19 24 1023.8 1023.8 0.0
 
Date/Time
EDT
Temp
°C
App
Temp
°C
Dew
Point
°C
Rel
Hum
%
Delta-T
°C
Wind Press
QNH
hPa
Press
MSL
hPa
Rain since
9am
mm
Dir  Spd
km/h
Gust
km/h
Spd
kts
Gust
kts
22/11:30pm 13.1 - - - - SSW 35 41 19 22 1024.0 - 0.0
22/11:00pm 13.2 - - - - SSW 28 35 15 19 1024.4 - 0.0
22/10:30pm 13.1 - - - - SSW 26 35 14 19 1024.3 - 0.0
22/10:00pm 13.0 - - - - SW 22 28 12 15 1024.4 - 0.0
22/09:30pm 13.4 - - - - SW 22 28 12 15 1024.1 - 0.0
22/09:00pm 14.0 - - - - SW 28 35 15 19 1024.0 1024.0 0.0
22/08:30pm 14.3 - - - - SW 24 32 13 17 1023.9 - 0.0
22/08:00pm 14.8 - - - - SW 22 30 12 16 1023.8 - 0.0
22/07:30pm 16.1 - - - - SW 33 43 18 23 1023.3 - 0.0
22/07:00pm 17.2 - - - - SW 35 44 19 24 1023.1 - 0.0
22/06:30pm 18.3 - - - - SW 30 37 16 20 1023.0 - 0.0
22/06:00pm 18.8 - - - - SW 32 39 17 21 1022.9 1022.9 0.0
22/05:30pm 19.4 - - - - SSW 33 44 18 24 1022.7 - 0.0
22/05:00pm 19.8 - - - - WSW 35 41 19 22 1022.7 - 0.0
22/04:30pm 19.8 - - - - SW 33 41 18 22 1022.8 - 0.0
22/04:00pm 20.1 - - - - WSW 33 44 18 24 1022.7 - 0.0
22/03:30pm 20.4 - - - - SW 28 35 15 19 1023.1 - 0.0
22/03:00pm 19.8 - - - - SW 37 48 20 26 1023.4 1023.4 0.0
22/02:30pm 20.3 - - - - SW 30 43 16 23 1023.6 - 0.0
22/02:00pm 19.2 - - - - WSW 30 44 16 24 1023.7 - 0.0
22/01:30pm 19.3 - - - - SW 28 41 15 22 1023.9 - 0.0
22/01:00pm 17.9 - - - - SW 28 37 15 20 1024.1 - 0.0
22/12:30pm 18.6 - - - - SSW 30 39 16 21 1024.2 - 0.0
22/12:00pm 17.6 - - - - SW 28 35 15 19 1024.5 1024.5 0.0
22/11:30am 16.4 - - - - SW 24 33 13 18 1024.5 - 0.0
22/11:00am 16.2 - - - - SW 24 32 13 17 1024.6 - 0.0
22/10:30am 16.0 - - - - SW 19 24 10 13 1024.5 - 0.0
22/10:00am 15.6 - - - - SW 17 24 9 13 1024.3 - 0.0
22/09:30am 14.9 - - - - SW 13 19 7 10 1024.2 - 0.0
22/09:00am 14.3 - - - - WSW 11 15 6 8 1024.1 1024.1 0.0
22/08:30am 13.2 - - - - SW 7 9 4 5 1023.9 - 0.0
22/08:00am 12.9 - - - - S 9 13 5 7 1023.5 - 0.0
22/07:30am 12.8 - - - - WSW 7 9 4 5 1023.2 - 0.0
22/07:00am 12.0 - - - - SW 2 6 1 3 1022.8 - 0.0
22/06:30am 12.0 - - - - W 4 7 2 4 1022.6 - 0.0
22/06:00am 12.0 - - - - S 4 9 2 5 1022.4 1022.4 0.0
22/05:30am 12.0 - - - - S 9 9 5 5 1022.4 - 0.0
22/05:00am 11.5 - - - - WSW 11 17 6 9 1022.4 - 0.0
22/04:30am 11.9 - - - - W 9 11 5 6 1022.4 - 0.0
22/04:00am 12.3 - - - - SW 11 15 6 8 1022.5 - 0.0
22/03:30am 11.7 - - - - SSW 9 13 5 7 1022.4 - 0.0
22/03:00am 11.1 - - - - W 9 15 5 8 1022.1 1022.1 0.0
22/02:30am 10.9 - - - - SSW 6 6 3 3 1021.9 - 0.0
22/02:00am 10.8 - - - - S 9 11 5 6 1022.1 - 0.0
22/01:30am 8.6 - - - - SW 9 9 5 5 1022.3 - 0.0
22/01:00am 9.0 - - - - SW 7 9 4 5 1022.4 - 0.0
22/12:30am 9.8 - - - - SW 6 7 3 4 1022.4 - 0.0
22/12:00am 10.2 - - - - SW 7 9 4 5 1022.6 1022.6 0.0
 
Date/Time
EDT
Temp
°C
App
Temp
°C
Dew
Point
°C
Rel
Hum
%
Delta-T
°C
Wind Press
QNH
hPa
Press
MSL
hPa
Rain since
9am
mm
Dir  Spd
km/h
Gust
km/h
Spd
kts
Gust
kts
21/11:30pm 10.2 - - - - WSW 4 7 2 4 1022.6 - 0.0
21/11:00pm 9.6 - - - - WSW 9 11 5 6 1022.6 - 0.0
21/10:30pm 10.7 - - - - W 6 7 3 4 1022.5 - 0.0
21/10:00pm 10.4 - - - - W 11 13 6 7 1022.4 - 0.0
21/09:30pm 11.6 - - - - WSW 11 13 6 7 1021.8 - 0.0
21/09:00pm 13.6 - - - - SW 17 20 9 11 1021.5 1021.5 0.0
21/08:30pm 13.6 - - - - SW 15 20 8 11 1021.1 - 0.0
21/08:00pm 14.4 - - - - WSW 20 28 11 15 1020.8 - 0.0
21/07:30pm 15.8 - - - - SW 22 33 12 18 1020.5 - 0.0
21/07:00pm 16.6 - - - - SW 24 32 13 17 1020.4 - 0.0
21/06:30pm 16.8 - - - - WSW 30 41 16 22 1020.2 - 0.0
21/06:00pm 18.2 - - - - WSW 30 43 16 23 1020.0 1020.0 0.0
21/05:30pm 17.3 - - - - WSW 28 41 15 22 1019.6 - 0.0
21/05:00pm 16.8 - - - - WSW 28 35 15 19 1019.4 - 0.0
21/04:30pm 17.8 - - - - WSW 33 44 18 24 1019.3 - 0.0
21/04:00pm 18.6 - - - - WSW 32 41 17 22 1019.3 - 0.0
21/03:30pm 18.3 - - - - SW 30 41 16 22 1019.5 - 0.0
21/03:00pm 18.9 - - - - WSW 35 46 19 25 1019.6 1019.6 0.0
21/02:30pm 16.9 - - - - WSW 35 50 19 27 1019.8 - 0.0
21/02:00pm 18.6 - - - - WSW 37 46 20 25 1019.5 - 0.0
21/01:30pm 16.7 - - - - WSW 33 48 18 26 1019.5 - 0.0
21/01:00pm 18.6 - - - - WSW 33 44 18 24 1019.5 - 0.0
21/12:30pm 17.6 - - - - WSW 32 39 17 21 1019.0 - 0.0
21/12:00pm 18.0 - - - - WSW 35 50 19 27 1018.9 1018.9 0.0
21/11:52am 17.8 - - - - WSW 32 50 17 27 1018.9 - 0.0
21/11:30am 17.4 - - - - WSW 30 44 16 24 1018.6 - 0.0
21/11:00am 16.5 - - - - SW 24 35 13 19 1018.5 - 0.0
21/10:30am 15.7 - - - - WSW 32 44 17 24 1018.3 - 0.0
21/10:00am 16.3 - - - - WSW 32 39 17 21 1018.0 - 0.0
21/09:30am 14.9 - - - - WSW 22 26 12 14 1017.9 - 0.0
21/09:00am 14.3 - - - - WSW 24 30 13 16 1017.6 1017.6 0.6
21/08:30am 13.6 - - - - W 20 28 11 15 1017.3 - 0.6
21/08:00am 13.4 - - - - W 19 24 10 13 1016.8 - 0.4
21/07:30am 12.0 - - - - WSW 20 28 11 15 1016.4 - 0.4
21/07:00am 11.9 - - - - W 17 20 9 11 1015.9 - 0.4
21/06:30am 10.5 - - - - W 15 17 8 9 1015.6 - 0.4
21/06:00am 10.6 - - - - W 19 22 10 12 1015.6 1015.6 0.4
21/05:30am 10.1 - - - - WSW 19 20 10 11 1015.3 - 0.4
21/05:00am 10.1 - - - - W 15 17 8 9 1015.1 - 0.4
21/04:30am 10.7 - - - - W 17 19 9 10 1014.9 - 0.4
21/04:00am 11.2 - - - - W 15 17 8 9 1014.9 - 0.4
21/03:30am 11.2 - - - - W 15 19 8 10 1014.9 - 0.4
21/03:00am 10.2 - - - - W 17 20 9 11 1015.0 1015.0 0.4
21/02:30am 9.3 - - - - WSW 17 19 9 10 1015.0 - 0.4
21/02:00am 9.5 - - - - WSW 15 17 8 9 1015.1 - 0.4
21/01:30am 10.2 - - - - W 13 15 7 8 1015.0 - 0.4
21/01:00am 8.8 - - - - W 15 19 8 10 1015.0 - 0.4
21/12:30am 9.6 - - - - W 13 15 7 8 1015.0 - 0.4
21/12:00am 10.0 - - - - WSW 15 19 8 10 1015.0 1015.0 0.4
 
Date/Time
EDT
Temp
°C
App
Temp
°C
Dew
Point
°C
Rel
Hum
%
Delta-T
°C
Wind Press
QNH
hPa
Press
MSL
hPa
Rain since
9am
mm
Dir  Spd
km/h
Gust
km/h
Spd
kts
Gust
kts
20/11:30pm 11.1 - - - - WSW 15 20 8 11 1014.9 - 0.4
20/11:00pm 12.4 - - - - WSW 15 19 8 10 1014.9 - 0.4
20/10:30pm 12.7 - - - - WSW 15 19 8 10 1014.7 - 0.4

Other formats

Comma delimited format used in spreadsheet applications
http://www.bom.gov.au/fwo/IDT60801/IDT60801.94953.axf

JavaScript Object Notation format (JSON) in row-major order
http://www.bom.gov.au/fwo/IDT60801/IDT60801.94953.json

Data quality

Most of these data are generated automatically and are frequently updated. Quality checks on data are not normally performed. It is possible for incorrect values to appear. Refer to information at About Latest Weather Observations and please check the disclaimer before using these data.